Syria, Indiana
Current Conditions -  °F | °C
As of 3:53 PM on Thursday 20 Nov 2014 (Local Time) from KBMG Reporting Station
Clear Clear  
Wind Chill: 21°   Ceiling: Unl
Heat Index: 30°   Visibility: 10mi
Dew Point: 15°   Wind: 10mph
Humidity: 54%   Direction: 250°WSW
Pressure: 30.16"   Gusts: NA
Location:  38.6433°N, 86.4481°W
Report Text: KBMG 202053Z 25009KT 10SM CLR M01/M09 A3016 RMK AO2 SLP222 T10111094 55004
Loading
Personal Weather Stations






























Interactive Weather Map New forecast layout! Learn more

10-Day Weather Forecast

Advertisements
Track Severe Weather on mobile